Terminal Aerodrome Forecast
Issued by NWS

Home | Current Version | Previous Version | Text Only | Print | Product List | Glossary On
Versions: 1 2 3 4 5 6 7 8 9 10 11 12 13 14
000
FTUS43 KEAX 301700
TAFMKC
TAF
KMKC 301720Z 3018/0118 17009KT P6SM FEW040 SCT080
     FM010900 17010KT P6SM -SHRA VCTS SCT040 OVC080CB=

USA.gov is the U.S. government's official web portal to all federal, state and local government web resources and services.